Galt, MO (64641)

2:55 AM CDT on August 30, 2015 (GMT -0500)
Trenton | | Change Station
CLOSE
Current Station
Personal Weather Station
Location: Trenton, MO
Elevation: 827 ft
Nearby Weather Stations

Elev 827 ft 40.07 °N, 93.58 °W | Updated 1 minute ago

Fog
Fog
64.2 °F
Feels Like 64.2 °F
N
0.0
Wind Variable Wind from WNW

Today
High -- | Low -- °F
--% Chance of Precip.
Yesterday
High -- | Low -- °F
Precip. -- in
6:39 AM 7:48 PM
Full, 100% visible
Pressure 30.02 in
Visibility 0.2 miles
Clouds
Dew Point 64 °F
Humidity 98%
Rainfall 0.00 in
Snow Depth Not available.
UV Not available.
Pollen 8.40 out of 12
Air Quality Not available.
Flu Activity Not available.
METAR KLWD 300753Z AUTO 00000KT 1/4SM FG VV002 19/18 A3004 RMK AO2 SLP165 T01890183
Pressure 30.02 in
Visibility 0.2 miles
Clouds
Dew Point 64 °F
Humidity 98%
Rainfall 0.00 in
Snow Depth Not available.
UV Not available.
Pollen 8.40 out of 12
Air Quality Not available.
Flu Activity Not available.
METAR KLWD 300753Z AUTO 00000KT 1/4SM FG VV002 19/18 A3004 RMK AO2 SLP165 T01890183

10-Day Weather Forecast

×

Almanac

Astronomy

Aug. 30, 2015 Rise Set
Actual Time
Civil Twilight
Nautical Twilight
Astronomical Twilight
Moon
Length of Visible Light
Length of Day
Tomorrow will be .
, % of the Moon is Illuminated

Today's Extremes

State Highs State Lows

Community

WunderPhotos

Upload Photos

1,850,904 photos uploaded!

WunderBlogs® & News

Nearby

Air Quality

  Air Quality AQ Index Pollutant
Not available.

Snow Depth

Station Depth Elevation

Earthquake Activity

City Distance Mag. Time & Date
Minimum magnitude displayed is 2.5.

Coastal Water Temperatures

Place Temperature

Stations

Nearby Weather Stations

Station Location Temp. Windchill Dew Point Humidity Wind Precip. Elev Updated Type